Time;durP1;ratioP1;P1;durP2;ratioP2;P2;SDS_P1;SDS_P2;PMS_P1;PMS_P2;Temp;Humidity;BMP_temperature;BMP_pressure;BME280_temperature;BME280_humidity;BME280_pressure;Samples;Min_cycle;Max_cycle;Signal;HPM_P1;HPM_P2
2021/12/01 00:00:23;;;;;;;48.67;34.47;;;10.10;99.90;;;;;;5015985;28;20371;-81
2021/12/01 00:02:53;;;;;;;46.17;31.53;;;10.10;99.90;;;;;;5033370;28;20022;-82
2021/12/01 00:05:21;;;;;;;40.00;27.47;;;10.10;99.90;;;;;;5016433;28;20022;-82
2021/12/01 00:07:48;;;;;;;38.87;27.10;;;10.20;99.90;;;;;;5032979;28;20477;-81
2021/12/01 00:10:15;;;;;;;34.30;24.33;;;10.10;99.90;;;;;;5015984;28;20033;-81
2021/12/01 00:12:41;;;;;;;35.20;24.00;;;10.10;99.90;;;;;;5033327;28;20026;-82
2021/12/01 00:15:07;;;;;;;30.77;22.17;;;10.10;99.90;;;;;;5033028;28;20025;-81
2021/12/01 00:17:33;;;;;;;29.73;21.27;;;10.10;99.90;;;;;;5014820;28;20025;-82
2021/12/01 00:20:02;;;;;;;29.30;20.57;;;10.10;99.90;;;;;;5010919;28;20588;-81
2021/12/01 00:22:27;;;;;;;25.90;18.87;;;10.10;99.90;;;;;;5011178;28;20101;-81
2021/12/01 00:24:54;;;;;;;26.73;17.17;;;10.20;99.90;;;;;;5012134;28;20026;-82
2021/12/01 00:27:20;;;;;;;25.57;18.03;;;10.10;99.90;;;;;;5013491;28;20022;-82
2021/12/01 00:29:45;;;;;;;22.63;16.73;;;10.20;99.90;;;;;;5013483;28;20114;-82
2021/12/01 00:32:11;;;;;;;20.83;14.83;;;10.20;99.90;;;;;;5013155;28;20072;-82
2021/12/01 00:34:37;;;;;;;22.13;15.23;;;10.20;99.90;;;;;;5013334;28;20101;-82
2021/12/01 00:37:03;;;;;;;20.03;14.13;;;10.20;99.90;;;;;;4995655;28;20092;-82
2021/12/01 00:39:28;;;;;;;19.00;13.67;;;10.20;99.90;;;;;;5013382;28;20543;-82
2021/12/01 00:41:56;;;;;;;16.83;12.27;;;10.20;99.90;;;;;;4995787;28;20022;-82
2021/12/01 00:44:22;;;;;;;17.63;11.97;;;10.30;99.90;;;;;;5012268;28;20018;-82
2021/12/01 00:47:05;;;;;;;15.83;11.13;;;10.20;99.90;;;;;;5008514;28;20043;-82
2021/12/01 00:49:35;;;;;;;15.90;10.47;;;10.30;99.90;;;;;;5008418;28;20042;-82
2021/12/01 00:52:01;;;;;;;13.53;9.63;;;10.30;99.90;;;;;;5009003;28;20031;-82
2021/12/01 00:54:27;;;;;;;12.57;8.17;;;10.40;99.90;;;;;;4992547;28;20073;-82
2021/12/01 00:56:52;;;;;;;13.37;8.80;;;10.20;99.90;;;;;;5008777;28;20022;-83
2021/12/01 00:59:18;;;;;;;17.23;8.50;;;10.20;99.90;;;;;;4992405;28;20092;-81
2021/12/01 01:01:46;;;;;;;14.03;9.20;;;10.20;99.90;;;;;;4995574;28;20030;-81
2021/12/01 01:04:12;;;;;;;13.20;8.15;;;10.20;99.90;;;;;;4996055;28;20116;-82
2021/12/01 01:06:38;;;;;;;13.67;8.80;;;10.30;99.90;;;;;;4996402;28;20015;-82
2021/12/01 01:09:06;;;;;;;12.20;7.90;;;10.30;99.90;;;;;;4997401;28;20395;-82
2021/12/01 01:17:08;;;;;;;15.97;9.13;;;10.30;99.90;;;;;;4997154;28;20067;-81
2021/12/01 01:19:36;;;;;;;15.23;9.23;;;10.30;99.90;;;;;;5011887;28;20026;-81
2021/12/01 01:22:04;;;;;;;15.40;9.50;;;10.30;99.90;;;;;;4996877;28;20382;-82
2021/12/01 01:24:30;;;;;;;13.20;8.93;;;10.30;99.90;;;;;;4997423;28;20456;-81
2021/12/01 01:26:56;;;;;;;14.60;10.03;;;10.30;99.90;;;;;;4997069;28;20035;-81
2021/12/01 01:29:23;;;;;;;14.17;9.47;;;10.30;99.90;;;;;;5012231;28;20120;-81
2021/12/01 01:31:54;;;;;;;14.73;9.63;;;10.30;99.90;;;;;;4997599;28;20038;-81
2021/12/01 01:34:20;;;;;;;15.40;9.27;;;10.30;99.90;;;;;;4997065;28;20105;-81
2021/12/01 01:36:46;;;;;;;13.90;9.63;;;10.30;99.90;;;;;;5012071;28;20423;-81
2021/12/01 01:39:12;;;;;;;14.87;9.03;;;10.30;99.90;;;;;;4995432;28;20025;-81
2021/12/01 01:41:37;;;;;;;12.10;8.17;;;10.30;99.90;;;;;;5012116;28;20109;-83
2021/12/01 01:44:04;;;;;;;13.23;7.80;;;10.30;99.90;;;;;;4996775;28;20026;-81
2021/12/01 01:46:36;;;;;;;11.40;7.37;;;10.40;99.90;;;;;;4998608;28;20081;-82
2021/12/01 01:49:08;;;;;;;8.95;6.05;;;10.40;99.90;;;;;;5015965;28;20390;-81
2021/12/01 01:51:35;;;;;;;10.53;6.03;;;10.30;99.90;;;;;;5016241;28;20458;-82
2021/12/01 01:54:01;;;;;;;9.03;5.57;;;10.30;99.90;;;;;;5015025;28;20022;-82
2021/12/01 01:56:28;;;;;;;8.87;5.33;;;10.30;99.90;;;;;;4998856;28;20029;-84
2021/12/01 01:58:54;;;;;;;8.93;5.47;;;10.30;99.90;;;;;;4998579;28;20121;-83
2021/12/01 02:01:44;;;;;;;8.23;4.68;;;10.30;99.90;;;;;;5014608;28;20022;-83
2021/12/01 02:04:12;;;;;;;6.60;4.07;;;10.30;99.90;;;;;;4998669;28;20548;-83
2021/12/01 02:06:38;;;;;;;7.07;4.20;;;10.30;99.90;;;;;;4998303;28;20466;-83
2021/12/01 02:09:06;;;;;;;7.60;3.95;;;10.30;99.90;;;;;;5015903;28;20034;-83
2021/12/01 02:11:32;;;;;;;7.33;3.80;;;10.30;99.90;;;;;;5015566;28;20025;-83
2021/12/01 02:13:58;;;;;;;7.10;4.30;;;10.30;99.90;;;;;;5015415;28;20481;-83
2021/12/01 02:16:24;;;;;;;9.60;4.13;;;10.30;99.90;;;;;;5016141;28;20101;-83
2021/12/01 02:18:49;;;;;;;7.17;4.83;;;10.30;99.90;;;;;;5015948;28;20045;-83
2021/12/01 02:21:29;;;;;;;7.33;4.63;;;10.30;99.90;;;;;;4997445;28;20026;-84
2021/12/01 02:24:07;;;;;;;8.40;5.10;;;10.20;99.90;;;;;;4998041;28;20080;-83
2021/12/01 02:26:38;;;;;;;7.43;4.43;;;10.20;99.90;;;;;;5015780;28;20050;-82
2021/12/01 02:29:06;;;;;;;8.57;5.43;;;10.20;99.90;;;;;;5015554;28;20548;-83
2021/12/01 02:31:36;;;;;;;7.80;4.73;;;10.20;99.90;;;;;;5015237;28;20398;-82
2021/12/01 02:34:05;;;;;;;8.77;4.83;;;10.20;99.90;;;;;;4997923;28;20017;-82
2021/12/01 02:36:31;;;;;;;7.97;4.80;;;10.20;99.90;;;;;;4998052;28;20038;-82
2021/12/01 02:38:56;;;;;;;6.93;4.40;;;10.20;99.90;;;;;;5015593;28;20030;-82
2021/12/01 02:41:31;;;;;;;8.63;4.23;;;10.10;99.90;;;;;;4998041;28;20529;-82
2021/12/01 02:43:59;;;;;;;7.80;4.10;;;10.10;99.90;;;;;;5014938;28;20021;-81
2021/12/01 02:46:24;;;;;;;7.13;4.57;;;10.10;99.90;;;;;;5014109;28;20120;-82
2021/12/01 02:48:50;;;;;;;7.03;4.93;;;10.10;99.90;;;;;;4997708;28;20570;-83
2021/12/01 02:51:18;;;;;;;6.80;4.47;;;10.00;99.90;;;;;;4997430;28;20476;-83
2021/12/01 02:53:44;;;;;;;7.47;5.00;;;10.00;99.90;;;;;;5014939;28;20076;-81
2021/12/01 02:56:10;;;;;;;9.57;4.80;;;9.90;99.90;;;;;;5015379;28;20478;-82
2021/12/01 02:58:40;;;;;;;7.23;4.53;;;9.90;99.90;;;;;;5013604;28;20366;-82
2021/12/01 03:01:12;;;;;;;7.50;4.80;;;9.90;99.90;;;;;;5014937;28;20379;-83
2021/12/01 03:03:40;;;;;;;9.90;4.20;;;9.90;99.90;;;;;;4997762;28;20018;-82
2021/12/01 03:06:06;;;;;;;5.53;3.67;;;9.80;99.90;;;;;;5014998;28;20061;-82
2021/12/01 03:08:33;;;;;;;6.70;3.47;;;9.80;99.90;;;;;;4997693;28;20030;-82
2021/12/01 03:10:59;;;;;;;8.27;4.60;;;9.80;99.90;;;;;;5013464;28;20022;-83
2021/12/01 03:13:25;;;;;;;6.53;3.70;;;9.70;99.90;;;;;;4996955;28;20465;-82
2021/12/01 03:15:51;;;;;;;6.40;3.63;;;9.70;99.90;;;;;;5015016;28;20026;-82
2021/12/01 03:18:18;;;;;;;6.07;3.73;;;9.70;99.90;;;;;;4997288;28;20022;-82
2021/12/01 03:20:45;;;;;;;5.80;3.50;;;9.70;99.90;;;;;;5014037;28;20022;-81
2021/12/01 03:23:10;;;;;;;7.10;4.23;;;9.70;99.90;;;;;;5014919;28;20029;-81
2021/12/01 03:25:36;;;;;;;5.33;3.53;;;9.70;99.90;;;;;;4997274;28;20113;-81
2021/12/01 03:28:03;;;;;;;4.97;3.00;;;9.60;99.90;;;;;;5014425;28;20076;-82
2021/12/01 03:30:33;;;;;;;6.93;3.13;;;9.60;99.90;;;;;;4997207;28;20072;-83
2021/12/01 03:33:01;;;;;;;8.47;3.50;;;9.50;99.90;;;;;;4996671;28;20025;-82
2021/12/01 03:35:27;;;;;;;5.87;3.57;;;9.60;99.90;;;;;;5014701;28;20053;-82
2021/12/01 03:37:53;;;;;;;5.20;2.93;;;9.60;99.90;;;;;;4996813;28;20054;-80
2021/12/01 03:40:18;;;;;;;5.57;3.57;;;9.50;99.90;;;;;;4996818;28;20533;-81
2021/12/01 03:42:44;;;;;;;4.63;3.07;;;9.50;99.90;;;;;;5014277;28;20022;-81
2021/12/01 03:45:11;;;;;;;4.57;2.77;;;9.50;99.90;;;;;;4996380;28;20026;-81
2021/12/01 03:47:37;;;;;;;4.73;3.07;;;9.50;99.90;;;;;;4996407;28;20378;-83
2021/12/01 03:50:04;;;;;;;4.43;2.90;;;9.50;99.90;;;;;;5012778;28;20044;-83
2021/12/01 03:52:30;;;;;;;5.47;3.33;;;9.50;99.90;;;;;;4996730;28;20025;-83
2021/12/01 03:54:56;;;;;;;5.07;3.40;;;9.50;99.90;;;;;;5012858;28;20045;-81
2021/12/01 03:57:21;;;;;;;7.23;3.60;;;9.50;99.90;;;;;;5014069;28;20045;-81
2021/12/01 03:59:47;;;;;;;5.67;3.20;;;9.40;99.90;;;;;;5014002;28;20025;-82
2021/12/01 04:02:13;;;;;;;6.57;3.93;;;9.50;99.90;;;;;;5013851;28;20018;-82
2021/12/01 04:04:38;;;;;;;5.90;3.83;;;9.40;99.90;;;;;;5012376;28;20037;-82
2021/12/01 04:07:04;;;;;;;5.40;3.57;;;9.40;99.90;;;;;;5012629;28;20394;-81
2021/12/01 04:09:31;;;;;;;7.67;4.23;;;9.30;99.90;;;;;;5012441;28;20037;-82
2021/12/01 04:11:57;;;;;;;6.37;3.47;;;9.30;99.90;;;;;;4996667;28;20025;-81
2021/12/01 04:14:23;;;;;;;6.83;3.93;;;9.30;99.90;;;;;;4996518;28;20026;-82
2021/12/01 04:16:49;;;;;;;5.40;3.63;;;9.30;99.90;;;;;;5013844;28;20076;-82
2021/12/01 04:19:15;;;;;;;5.63;3.80;;;9.30;99.90;;;;;;4995808;28;20076;-82
2021/12/01 04:21:41;;;;;;;5.93;4.00;;;9.30;99.90;;;;;;5013801;28;20017;-82
2021/12/01 04:24:07;;;;;;;5.90;3.70;;;9.30;99.90;;;;;;4996194;28;20442;-81
2021/12/01 04:26:34;;;;;;;8.10;3.40;;;9.30;99.90;;;;;;4995997;28;20021;-82
2021/12/01 04:29:01;;;;;;;6.20;3.60;;;9.30;99.90;;;;;;4995952;28;20144;-82
2021/12/01 04:31:31;;;;;;;4.57;2.93;;;9.30;99.90;;;;;;4995690;28;20458;-83
2021/12/01 04:33:57;;;;;;;5.37;3.03;;;9.30;99.90;;;;;;5013747;28;20028;-83
2021/12/01 04:36:29;;;;;;;4.57;2.80;;;9.20;99.90;;;;;;4995242;28;20014;-84
2021/12/01 04:38:55;;;;;;;5.23;2.80;;;9.30;99.90;;;;;;5013194;28;20088;-83
2021/12/01 04:41:22;;;;;;;3.87;2.47;;;9.30;99.90;;;;;;4995934;28;20421;-83
2021/12/01 04:43:48;;;;;;;6.60;2.77;;;9.30;99.90;;;;;;5013107;28;20014;-82
2021/12/01 04:46:16;;;;;;;4.47;2.27;;;9.30;99.90;;;;;;4995538;28;20022;-82
2021/12/01 04:48:44;;;;;;;4.53;2.40;;;9.30;99.90;;;;;;5011946;28;20049;-82
2021/12/01 04:51:10;;;;;;;4.70;2.93;;;9.30;99.90;;;;;;5012621;28;20045;-81
2021/12/01 04:53:37;;;;;;;4.13;2.30;;;9.30;99.90;;;;;;5013298;28;20478;-82
2021/12/01 04:56:04;;;;;;;5.40;2.70;;;9.30;99.90;;;;;;5011937;28;20601;-82
2021/12/01 04:58:30;;;;;;;7.00;2.90;;;9.30;99.90;;;;;;4995755;28;20068;-83
2021/12/01 05:00:57;;;;;;;5.00;2.77;;;9.30;99.90;;;;;;5012134;28;20111;-83
2021/12/01 05:03:23;;;;;;;4.53;2.50;;;9.30;99.90;;;;;;5013455;28;20022;-82
2021/12/01 05:05:49;;;;;;;5.27;2.90;;;9.30;99.90;;;;;;5012001;28;20378;-83
2021/12/01 05:08:14;;;;;;;5.73;3.40;;;9.30;99.90;;;;;;5012015;28;20462;-83
2021/12/01 05:10:40;;;;;;;6.30;3.47;;;9.30;99.90;;;;;;5013531;28;20115;-82
2021/12/01 05:13:05;;;;;;;6.23;3.13;;;9.20;99.90;;;;;;5013042;28;20033;-82
2021/12/01 05:15:31;;;;;;;8.67;4.30;;;9.20;99.90;;;;;;5011848;28;20530;-82
2021/12/01 05:17:57;;;;;;;6.63;3.93;;;9.20;99.90;;;;;;5012010;28;20027;-83
2021/12/01 05:20:22;;;;;;;7.00;4.33;;;9.20;99.90;;;;;;5011399;28;20053;-83
2021/12/01 05:22:48;;;;;;;7.07;4.50;;;9.10;99.90;;;;;;5011632;28;20037;-82
2021/12/01 05:25:14;;;;;;;6.13;4.27;;;9.10;99.90;;;;;;5015164;28;20057;-82
2021/12/01 05:27:39;;;;;;;6.07;3.67;;;9.10;99.90;;;;;;5021396;28;20454;-82
2021/12/01 05:30:06;;;;;;;7.03;4.40;;;9.10;99.90;;;;;;4997283;28;20040;-82
2021/12/01 05:32:32;;;;;;;6.17;3.77;;;9.00;99.90;;;;;;5021579;28;20026;-82
2021/12/01 05:34:58;;;;;;;6.80;3.43;;;9.00;99.90;;;;;;5012949;28;20143;-82
2021/12/01 05:37:24;;;;;;;7.83;3.03;;;9.00;99.90;;;;;;5017123;28;20052;-82
2021/12/01 05:39:50;;;;;;;6.70;3.80;;;8.90;99.90;;;;;;5014277;28;20017;-83
2021/12/01 05:42:16;;;;;;;6.20;3.07;;;8.90;99.90;;;;;;5031292;28;20454;-83
2021/12/01 05:44:43;;;;;;;6.23;3.00;;;8.90;99.90;;;;;;5032142;28;20053;-83
2021/12/01 05:47:09;;;;;;;4.83;2.83;;;8.90;99.90;;;;;;5014475;28;20053;-83
2021/12/01 05:49:41;;;;;;;6.33;3.50;;;8.90;99.90;;;;;;5017687;28;20374;-83
2021/12/01 05:52:08;;;;;;;7.47;2.90;;;8.90;99.90;;;;;;5035672;28;20081;-82
2021/12/01 05:54:33;;;;;;;5.87;2.87;;;8.90;99.90;;;;;;5035849;28;20036;-83
2021/12/01 05:56:59;;;;;;;4.67;2.53;;;8.90;99.90;;;;;;5018435;28;20025;-82
2021/12/01 05:59:25;;;;;;;3.97;2.43;;;8.90;99.90;;;;;;5017857;28;20013;-82
2021/12/01 06:01:50;;;;;;;5.00;2.20;;;8.90;99.90;;;;;;5018114;28;20449;-81
2021/12/01 06:04:16;;;;;;;4.73;2.33;;;8.90;99.90;;;;;;5035685;28;20025;-82
2021/12/01 06:06:41;;;;;;;4.37;2.23;;;8.90;99.90;;;;;;5035672;28;20354;-82
2021/12/01 06:09:07;;;;;;;5.07;2.00;;;8.90;99.90;;;;;;5036008;28;20037;-81
2021/12/01 06:11:33;;;;;;;5.07;2.23;;;8.90;99.90;;;;;;5035795;28;20072;-82
2021/12/01 06:13:59;;;;;;;3.57;1.90;;;8.90;99.90;;;;;;5001411;28;20037;-82
2021/12/01 06:16:25;;;;;;;4.10;1.77;;;8.90;99.90;;;;;;5001644;28;20075;-81
2021/12/01 06:18:50;;;;;;;3.63;1.20;;;8.80;99.90;;;;;;5017575;28;20029;-81
2021/12/01 06:21:17;;;;;;;3.83;1.57;;;8.80;99.90;;;;;;5035271;28;20037;-81
2021/12/01 06:23:43;;;;;;;2.80;1.37;;;8.80;99.90;;;;;;5035267;28;20075;-81
2021/12/01 06:26:09;;;;;;;2.60;1.20;;;8.70;99.90;;;;;;5017919;28;20040;-81
2021/12/01 06:28:35;;;;;;;3.47;1.50;;;8.80;99.90;;;;;;5035130;28;20037;-81
2021/12/01 06:31:01;;;;;;;2.40;1.20;;;8.80;99.90;;;;;;5001504;28;20025;-81
2021/12/01 06:33:26;;;;;;;2.17;0.90;;;8.70;99.90;;;;;;5034978;28;20022;-81
2021/12/01 06:35:52;;;;;;;2.73;1.30;;;8.70;99.90;;;;;;5035374;28;20087;-81
2021/12/01 06:38:19;;;;;;;3.23;1.37;;;8.80;99.90;;;;;;5017759;28;20032;-80
2021/12/01 06:40:48;;;;;;;5.83;1.43;;;8.70;99.90;;;;;;5017958;28;20366;-81
2021/12/01 06:43:14;;;;;;;2.83;1.23;;;8.70;99.90;;;;;;5035196;28;20033;-81
2021/12/01 06:45:40;;;;;;;3.13;1.30;;;8.70;99.90;;;;;;5017275;28;20112;-80
2021/12/01 06:48:07;;;;;;;5.20;1.83;;;8.70;99.90;;;;;;5034679;28;20081;-80
2021/12/01 06:50:33;;;;;;;2.37;1.03;;;8.70;99.90;;;;;;5034780;28;20095;-81
2021/12/01 06:52:59;;;;;;;3.00;1.47;;;8.70;99.90;;;;;;5034763;28;20049;-81
2021/12/01 06:55:25;;;;;;;2.63;1.20;;;8.70;99.90;;;;;;5034605;28;20376;-79
2021/12/01 06:57:51;;;;;;;2.53;1.00;;;8.70;99.90;;;;;;5017112;28;20121;-80
2021/12/01 07:00:18;;;;;;;2.30;1.20;;;8.70;99.90;;;;;;5034367;28;20029;-81
2021/12/01 07:02:44;;;;;;;2.77;1.60;;;8.70;99.90;;;;;;5016916;28;20017;-82
2021/12/01 07:05:10;;;;;;;5.47;1.50;;;8.70;99.90;;;;;;5034368;28;20013;-80
2021/12/01 07:07:37;;;;;;;1.90;1.10;;;8.70;99.90;;;;;;5017195;28;20030;-82
2021/12/01 07:10:09;;;;;;;3.40;1.60;;;8.70;99.90;;;;;;5034275;28;20036;-80
2021/12/01 07:12:35;;;;;;;5.00;1.47;;;8.70;99.90;;;;;;5034585;28;20484;-81
2021/12/01 07:15:02;;;;;;;3.63;1.77;;;8.70;99.90;;;;;;5017115;28;20441;-81
2021/12/01 07:17:28;;;;;;;3.13;1.47;;;8.70;99.90;;;;;;5034484;28;20033;-81
2021/12/01 07:19:53;;;;;;;3.63;1.77;;;8.70;99.90;;;;;;5016709;28;20029;-80
2021/12/01 07:22:19;;;;;;;3.73;1.87;;;8.70;99.90;;;;;;5034120;28;20021;-81
2021/12/01 07:24:45;;;;;;;3.23;1.43;;;8.70;99.90;;;;;;5034438;28;20025;-80
2021/12/01 07:27:11;;;;;;;4.07;2.20;;;8.70;99.90;;;;;;5016884;28;20472;-81
2021/12/01 07:29:37;;;;;;;5.30;2.13;;;8.60;99.90;;;;;;5000495;28;20386;-82
2021/12/01 07:32:04;;;;;;;4.53;2.47;;;8.70;99.90;;;;;;5016626;28;20017;-82
2021/12/01 07:34:31;;;;;;;4.40;1.97;;;8.70;99.90;;;;;;5034041;28;20020;-82
2021/12/01 07:36:57;;;;;;;4.77;2.70;;;8.70;99.90;;;;;;5016758;28;20107;-81
2021/12/01 07:39:22;;;;;;;4.27;2.07;;;8.70;99.90;;;;;;5011198;28;20034;-82
2021/12/01 07:41:48;;;;;;;4.10;2.50;;;8.70;99.90;;;;;;5007047;28;20120;-81
2021/12/01 07:44:14;;;;;;;5.27;2.63;;;8.70;99.90;;;;;;5004835;28;20029;-82
2021/12/01 07:46:40;;;;;;;5.23;2.60;;;8.70;99.90;;;;;;5001333;28;20462;-80
2021/12/01 07:49:06;;;;;;;4.03;2.33;;;8.70;99.90;;;;;;5005787;28;20362;-82
2021/12/01 07:51:32;;;;;;;4.20;2.43;;;8.80;99.90;;;;;;5028117;28;20033;-81
2021/12/01 07:53:58;;;;;;;4.23;2.50;;;8.80;99.90;;;;;;4995948;28;20029;-82
2021/12/01 07:56:24;;;;;;;5.30;3.00;;;8.80;99.90;;;;;;5018462;28;20041;-82
2021/12/01 07:58:50;;;;;;;7.97;3.97;;;8.80;99.90;;;;;;5014136;28;20018;-81
2021/12/01 08:01:15;;;;;;;8.13;4.27;;;8.80;99.90;;;;;;4996660;28;20590;-82
2021/12/01 08:03:41;;;;;;;7.57;4.83;;;8.80;99.90;;;;;;5014367;28;20049;-82
2021/12/01 08:06:07;;;;;;;10.77;5.30;;;8.90;99.90;;;;;;5014117;28;20461;-81
2021/12/01 08:08:32;;;;;;;11.20;5.30;;;8.90;99.90;;;;;;5001422;28;20045;-82
2021/12/01 08:10:58;;;;;;;12.37;6.43;;;8.90;99.90;;;;;;5003118;28;20032;-82
2021/12/01 08:13:23;;;;;;;10.03;6.30;;;8.90;99.90;;;;;;5013378;28;20041;-81
2021/12/01 08:15:50;;;;;;;10.90;6.93;;;8.90;99.90;;;;;;4997167;28;20442;-81
2021/12/01 08:18:17;;;;;;;10.33;6.77;;;9.00;99.90;;;;;;5010258;28;20038;-82
2021/12/01 08:20:43;;;;;;;11.97;7.63;;;9.00;99.90;;;;;;5014596;28;20024;-82
2021/12/01 08:23:09;;;;;;;12.60;7.80;;;9.00;99.90;;;;;;5013325;28;20021;-82
2021/12/01 08:25:35;;;;;;;13.07;7.90;;;9.10;99.90;;;;;;5012081;28;20029;-82
2021/12/01 08:28:02;;;;;;;11.65;7.00;;;9.10;99.90;;;;;;5022642;28;20079;-81
2021/12/01 08:30:28;;;;;;;10.73;7.20;;;9.10;99.90;;;;;;4999624;28;20057;-82
2021/12/01 08:32:55;;;;;;;11.30;7.03;;;9.20;99.90;;;;;;5002204;28;20371;-82
2021/12/01 08:35:21;;;;;;;11.93;7.20;;;9.20;99.90;;;;;;5011240;28;20049;-81
2021/12/01 08:37:47;;;;;;;12.57;7.63;;;9.20;99.90;;;;;;5031545;28;20064;-81
2021/12/01 08:40:14;;;;;;;10.63;7.67;;;9.30;99.90;;;;;;5032748;28;20052;-82
2021/12/01 08:42:41;;;;;;;11.93;8.67;;;9.30;99.90;;;;;;5015379;28;20417;-81
2021/12/01 08:45:07;;;;;;;10.07;7.97;;;9.30;99.90;;;;;;5015397;28;20116;-81
2021/12/01 08:47:33;;;;;;;11.93;6.70;;;9.40;99.90;;;;;;5014477;28;20052;-81
2021/12/01 08:49:59;;;;;;;11.13;7.90;;;9.40;99.90;;;;;;5014759;28;20046;-81
2021/12/01 08:52:25;;;;;;;11.77;7.97;;;9.50;99.90;;;;;;5015647;28;20044;-81
2021/12/01 08:54:51;;;;;;;10.53;7.17;;;9.50;99.90;;;;;;5015591;28;20037;-81
2021/12/01 08:57:17;;;;;;;11.07;7.00;;;9.50;99.90;;;;;;5015190;28;20037;-81
2021/12/01 08:59:44;;;;;;;14.30;8.27;;;9.50;99.90;;;;;;4999123;28;20369;-82
2021/12/01 09:02:10;;;;;;;14.17;7.13;;;9.60;99.90;;;;;;5033096;28;20017;-82
2021/12/01 09:04:36;;;;;;;11.93;8.10;;;9.60;99.90;;;;;;5015783;28;20080;-82
2021/12/01 09:07:02;;;;;;;12.07;7.63;;;9.50;99.90;;;;;;5032483;28;20068;-81
2021/12/01 09:09:27;;;;;;;11.07;7.30;;;9.60;99.90;;;;;;5032865;28;20033;-81
2021/12/01 09:11:53;;;;;;;13.57;8.00;;;9.50;99.90;;;;;;4998921;28;20029;-81
2021/12/01 09:14:23;;;;;;;14.83;7.57;;;9.50;99.90;;;;;;5009913;28;20025;-82
2021/12/01 09:16:49;;;;;;;12.43;7.07;;;9.50;99.90;;;;;;4979546;28;20108;-82
2021/12/01 09:19:15;;;;;;;14.90;5.97;;;9.40;99.90;;;;;;4979174;28;20026;-82
2021/12/01 09:21:41;;;;;;;14.17;6.57;;;9.30;99.90;;;;;;4979188;28;20018;-82
2021/12/01 09:24:07;;;;;;;12.77;5.57;;;9.30;99.90;;;;;;4999482;28;20030;-82
2021/12/01 09:26:33;;;;;;;12.40;4.73;;;9.30;99.90;;;;;;4983416;28;20535;-82
2021/12/01 09:28:59;;;;;;;8.70;3.43;;;9.20;99.90;;;;;;5016882;28;20040;-82
2021/12/01 09:31:25;;;;;;;11.07;3.17;;;9.10;99.90;;;;;;5016631;28;20441;-82
2021/12/01 09:33:51;;;;;;;10.90;2.97;;;9.10;99.90;;;;;;5016769;28;20026;-82
2021/12/01 09:36:17;;;;;;;12.63;2.57;;;9.10;99.90;;;;;;4982756;28;20451;-82
2021/12/01 09:38:43;;;;;;;15.97;3.47;;;9.00;99.90;;;;;;5016824;28;20022;-82
2021/12/01 09:41:10;;;;;;;9.07;3.00;;;8.90;99.90;;;;;;5016384;28;20025;-82
2021/12/01 09:43:37;;;;;;;11.57;2.17;;;8.80;99.90;;;;;;4983215;28;20037;-82
2021/12/01 09:46:08;;;;;;;15.33;2.90;;;8.90;99.90;;;;;;5016432;28;20018;-82
2021/12/01 09:48:34;;;;;;;11.53;2.70;;;8.90;99.90;;;;;;4999933;28;20377;-82
2021/12/01 09:51:00;;;;;;;10.23;2.60;;;8.90;99.90;;;;;;5015691;28;20022;-82
2021/12/01 09:53:25;;;;;;;16.30;2.97;;;8.90;99.90;;;;;;5015950;28;20041;-81
2021/12/01 09:55:51;;;;;;;14.70;2.63;;;8.90;99.90;;;;;;5013130;28;20526;-83
2021/12/01 09:58:23;;;;;;;9.00;2.80;;;9.00;99.90;;;;;;4995208;28;20053;-82
2021/12/01 10:00:55;;;;;;;12.23;2.10;;;9.00;99.90;;;;;;4996438;28;20062;-81
2021/12/01 10:03:22;;;;;;;12.73;2.27;;;9.00;99.90;;;;;;4996541;28;20033;-82
2021/12/01 10:05:59;;;;;;;12.10;1.70;;;9.10;99.90;;;;;;4996695;28;20458;-82
2021/12/01 10:08:28;;;;;;;14.60;2.67;;;9.10;99.90;;;;;;4995068;28;20121;-83
2021/12/01 10:10:55;;;;;;;13.30;1.57;;;9.20;99.90;;;;;;4996704;28;20018;-83
2021/12/01 10:13:34;;;;;;;8.02;1.45;;;9.70;99.90;;;;;;4997104;28;20027;-83
2021/12/01 10:16:02;;;;;;;14.07;1.40;;;10.20;99.90;;;;;;4996384;28;20490;-81
2021/12/01 10:18:34;;;;;;;11.95;0.90;;;10.50;99.90;;;;;;4995157;28;20521;-81
2021/12/01 10:21:22;;;;;;;8.25;0.98;;;10.50;99.90;;;;;;4995894;28;20374;-82
2021/12/01 10:23:50;;;;;;;10.80;1.13;;;10.30;99.90;;;;;;5009032;28;20547;-82
2021/12/01 10:26:28;;;;;;;9.73;1.33;;;10.10;99.90;;;;;;5015700;28;20061;-82
2021/12/01 10:29:00;;;;;;;6.37;0.80;;;10.10;99.90;;;;;;5010080;28;20038;-82
2021/12/01 10:31:48;;;;;;;11.57;1.03;;;10.00;99.90;;;;;;5004555;28;20105;-82
2021/12/01 10:34:24;;;;;;;7.47;1.47;;;9.90;99.90;;;;;;5004512;28;20089;-82
2021/12/01 10:37:05;;;;;;;6.33;0.67;;;9.70;99.90;;;;;;5004924;28;20025;-82
2021/12/01 10:39:30;;;;;;;5.50;0.93;;;9.60;99.90;;;;;;5008856;28;20037;-81
2021/12/01 10:42:06;;;;;;;9.37;0.83;;;9.60;99.90;;;;;;5012818;28;20026;-82
2021/12/01 10:44:33;;;;;;;10.20;0.60;;;9.50;99.90;;;;;;5004654;28;20451;-82
2021/12/01 10:47:08;;;;;;;4.20;0.40;;;9.40;99.90;;;;;;5007135;28;20029;-82
2021/12/01 10:49:43;;;;;;;5.70;0.90;;;9.40;99.90;;;;;;5023825;28;20034;-82
2021/12/01 10:52:27;;;;;;;7.87;0.70;;;9.30;99.90;;;;;;5024050;28;20067;-82
2021/12/01 10:55:05;;;;;;;6.35;0.75;;;9.30;99.90;;;;;;5023696;28;20021;-82
2021/12/01 10:57:31;;;;;;;7.87;0.97;;;9.30;99.90;;;;;;5022757;28;20042;-82
2021/12/01 10:59:56;;;;;;;6.37;0.60;;;9.30;99.90;;;;;;5012554;28;20527;-82
2021/12/01 11:02:22;;;;;;;4.93;0.60;;;9.40;99.90;;;;;;5034478;28;20373;-83
2021/12/01 11:04:51;;;;;;;8.87;0.60;;;9.60;99.90;;;;;;5017920;28;20060;-82
2021/12/01 11:07:31;;;;;;;7.07;0.40;;;9.70;99.90;;;;;;5027902;28;20029;-81
2021/12/01 11:10:12;;;;;;;7.27;0.77;;;9.70;99.90;;;;;;5034623;28;20033;-82
2021/12/01 11:12:37;;;;;;;5.30;1.03;;;9.80;99.90;;;;;;5016938;28;20075;-82
2021/12/01 11:15:21;;;;;;;10.30;0.87;;;9.90;99.90;;;;;;5017718;28;20025;-82
2021/12/01 11:17:48;;;;;;;6.15;0.50;;;10.00;99.90;;;;;;4999900;28;20026;-82
2021/12/01 11:20:36;;;;;;;7.13;0.90;;;10.00;99.60;;;;;;4997558;28;20029;-81
2021/12/01 11:23:22;;;;;;;6.60;0.88;;;10.10;99.50;;;;;;4997770;28;20062;-81
2021/12/01 11:25:54;;;;;;;5.27;0.73;;;10.20;98.80;;;;;;4996705;28;20042;-81
2021/12/01 11:28:23;;;;;;;5.87;0.70;;;10.10;98.70;;;;;;5025721;28;20088;-82
2021/12/01 11:30:56;;;;;;;5.63;0.70;;;10.00;98.50;;;;;;5016399;28;20029;-82
2021/12/01 11:33:23;;;;;;;4.60;0.90;;;10.00;98.70;;;;;;5034687;28;20053;-82
2021/12/01 11:35:55;;;;;;;7.07;1.00;;;10.00;98.70;;;;;;5034464;28;20025;-81
2021/12/01 11:38:21;;;;;;;7.33;0.87;;;10.00;98.50;;;;;;5034343;28;20120;-81
2021/12/01 11:40:48;;;;;;;6.97;0.70;;;9.90;98.70;;;;;;5034498;28;20033;-81
2021/12/01 11:43:15;;;;;;;9.80;0.80;;;9.90;98.60;;;;;;5034019;28;20462;-80
2021/12/01 11:45:43;;;;;;;7.00;0.73;;;9.90;98.60;;;;;;5015643;28;20018;-80
2021/12/01 11:48:26;;;;;;;5.07;0.77;;;9.80;98.10;;;;;;5033912;28;20370;-81
2021/12/01 11:51:18;;;;;;;7.23;1.33;;;9.80;98.40;;;;;;5033915;28;20508;-81
2021/12/01 11:53:56;;;;;;;9.23;0.80;;;9.70;98.30;;;;;;5016508;28;20040;-81
2021/12/01 11:56:35;;;;;;;7.83;0.80;;;9.70;98.50;;;;;;5034092;28;20025;-81
2021/12/01 11:59:14;;;;;;;12.30;1.27;;;9.60;98.20;;;;;;5016127;28;20489;-81
2021/12/01 12:01:46;;;;;;;9.10;1.27;;;9.50;98.30;;;;;;5034916;28;20017;-81
2021/12/01 12:04:11;;;;;;;5.97;0.70;;;9.50;98.30;;;;;;5015989;28;20021;-81
2021/12/01 12:06:46;;;;;;;6.17;1.00;;;9.30;98.60;;;;;;5033649;28;20531;-81
2021/12/01 12:09:18;;;;;;;6.50;0.80;;;9.30;98.80;;;;;;5033952;28;20480;-81
2021/12/01 12:11:56;;;;;;;7.73;0.90;;;9.30;98.70;;;;;;5016241;28;20388;-80
2021/12/01 12:14:44;;;;;;;10.63;1.50;;;9.30;98.70;;;;;;5033547;28;20112;-81
2021/12/01 12:17:14;;;;;;;10.77;1.20;;;9.30;98.70;;;;;;5015818;28;20021;-81
2021/12/01 12:20:01;;;;;;;8.47;0.80;;;9.30;98.90;;;;;;5015662;28;20044;-80
2021/12/01 12:22:43;;;;;;;9.10;1.10;;;9.40;98.70;;;;;;5028278;28;20030;-81
2021/12/01 12:25:30;;;;;;;11.83;1.43;;;9.40;98.90;;;;;;4996115;28;20417;-80
2021/12/01 12:27:56;;;;;;;7.50;0.93;;;9.30;98.60;;;;;;5013186;28;20032;-81
2021/12/01 12:30:34;;;;;;;14.87;1.50;;;9.40;98.60;;;;;;5013728;28;20116;-81
2021/12/01 12:33:30;;;;;;;10.53;1.10;;;9.40;98.40;;;;;;4996114;28;20022;-81
2021/12/01 12:36:08;;;;;;;12.47;2.70;;;9.50;98.40;;;;;;5013347;28;20057;-80
2021/12/01 12:38:35;;;;;;;8.27;1.70;;;9.50;98.30;;;;;;5013972;28;20026;-81
2021/12/01 12:41:10;;;;;;;9.13;1.20;;;9.60;97.90;;;;;;4996128;28;20045;-81
2021/12/01 12:43:41;;;;;;;9.87;0.80;;;9.70;97.40;;;;;;4996130;28;20025;-81
2021/12/01 12:46:17;;;;;;;6.27;0.83;;;9.70;97.50;;;;;;4996013;28;20022;-80
2021/12/01 12:48:49;;;;;;;10.33;1.37;;;9.80;97.40;;;;;;5024854;28;20132;-81
2021/12/01 12:51:29;;;;;;;14.57;1.17;;;9.80;96.60;;;;;;5032703;28;20048;-81
2021/12/01 12:54:02;;;;;;;10.17;1.17;;;9.80;96.40;;;;;;5015427;28;20025;-81
2021/12/01 12:56:39;;;;;;;7.07;0.80;;;9.90;96.60;;;;;;5033404;28;20031;-81
2021/12/01 12:59:30;;;;;;;7.93;0.87;;;9.80;96.20;;;;;;5019524;28;20021;-81
2021/12/01 13:02:15;;;;;;;9.10;0.80;;;9.80;96.40;;;;;;5019532;28;20022;-81